Time;durP1;ratioP1;P1;durP2;ratioP2;P2;SDS_P1;SDS_P2;PMS_P1;PMS_P2;Temp;Humidity;BMP_temperature;BMP_pressure;BME280_temperature;BME280_humidity;BME280_pressure;Samples;Min_cycle;Max_cycle;Signal;HPM_P1;HPM_P2
2023/01/16 00:02:00;;;;;;;21.52;9.30;;;;;;;;;;6198533;28;20184;-57
2023/01/16 00:05:00;;;;;;;24.20;11.32;;;;;;;;;;6199505;28;20053;-58
2023/01/16 00:08:01;;;;;;;19.05;9.05;;;;;;;;;;6198189;28;20145;-58
2023/01/16 00:11:02;;;;;;;26.15;11.48;;;;;;;;;;6194148;28;20053;-58
2023/01/16 00:14:03;;;;;;;18.23;9.10;;;;;;;;;;6198738;28;20092;-56
2023/01/16 00:17:03;;;;;;;26.55;15.10;;;;;;;;;;6196217;28;20046;-59
2023/01/16 00:20:04;;;;;;;19.25;9.57;;;;;;;;;;6193582;28;21406;-57
2023/01/16 00:23:05;;;;;;;30.10;14.95;;;;;;;;;;6197022;28;20100;-58
2023/01/16 00:26:08;;;;;;;25.42;13.35;;;;;;;;;;6197714;28;20447;-60
2023/01/16 00:29:08;;;;;;;;;;;;;;;;;;6194538;28;20084;-55
2023/01/16 00:32:10;;;;;;;27.23;12.15;;;;;;;;;;6197527;28;19925;-56
2023/01/16 00:35:10;;;;;;;27.88;14.27;;;;;;;;;;6198061;28;20136;-56
2023/01/16 00:38:11;;;;;;;25.08;11.95;;;;;;;;;;6197160;28;20064;-55
2023/01/16 00:41:11;;;;;;;27.17;13.50;;;;;;;;;;6195221;28;20559;-58
2023/01/16 00:44:14;;;;;;;25.80;11.98;;;;;;;;;;6197366;28;20564;-55
2023/01/16 00:47:14;;;;;;;39.53;22.30;;;;;;;;;;6196041;28;21175;-56
2023/01/16 00:50:15;;;;;;;34.42;16.63;;;;;;;;;;6194115;28;20061;-58
2023/01/16 00:53:16;;;;;;;34.78;16.63;;;;;;;;;;6198770;28;20050;-55
2023/01/16 00:56:17;;;;;;;37.78;19.63;;;;;;;;;;6198030;28;20988;-58
2023/01/16 00:59:17;;;;;;;46.10;21.38;;;;;;;;;;6192913;28;20057;-57
2023/01/16 01:02:18;;;;;;;46.25;20.65;;;;;;;;;;6199456;28;20057;-59
2023/01/16 01:05:18;;;;;;;30.92;15.45;;;;;;;;;;6196118;28;20061;-58
2023/01/16 01:08:19;;;;;;;39.08;16.30;;;;;;;;;;6198507;28;20050;-56
2023/01/16 01:11:20;;;;;;;33.50;17.50;;;;;;;;;;6194531;28;20103;-56
2023/01/16 01:14:21;;;;;;;35.20;17.52;;;;;;;;;;6197253;28;20661;-56
2023/01/16 01:17:21;;;;;;;26.98;13.75;;;;;;;;;;6195478;28;20057;-58
2023/01/16 01:20:22;;;;;;;29.52;14.52;;;;;;;;;;6191922;28;20148;-58
2023/01/16 01:23:22;;;;;;;26.17;12.63;;;;;;;;;;6197826;28;20058;-57
2023/01/16 01:26:23;;;;;;;20.80;10.30;;;;;;;;;;6199266;28;20053;-58
2023/01/16 01:29:24;;;;;;;24.20;10.95;;;;;;;;;;6192412;28;20250;-58
2023/01/16 01:32:24;;;;;;;27.23;13.20;;;;;;;;;;6197124;28;20050;-58
2023/01/16 01:35:25;;;;;;;26.35;12.30;;;;;;;;;;6201551;28;20061;-57
2023/01/16 01:38:26;;;;;;;26.60;12.10;;;;;;;;;;6199245;28;20054;-58
2023/01/16 01:41:26;;;;;;;25.63;12.63;;;;;;;;;;6197381;28;20046;-57
2023/01/16 01:44:54;;;;;;;23.85;11.65;;;;;;;;;;6202609;28;20052;-56
2023/01/16 01:52:03;;;;;;;31.33;16.90;;;;;;;;;;6201063;28;20054;-57
2023/01/16 01:55:07;;;;;;;29.35;13.55;;;;;;;;;;6200819;28;20504;-59
2023/01/16 01:58:09;;;;;;;33.97;16.83;;;;;;;;;;6201068;28;20795;-58
2023/01/16 02:01:10;;;;;;;;;;;;;;;;;;6195547;28;20452;-58
2023/01/16 02:30:37;;;;;;;48.75;25.63;;;;;;;;;;6752165;23;20054;-59
2023/01/16 02:33:56;;;;;;;46.40;20.65;;;;;;;;;;6179043;28;20232;-58
2023/01/16 02:37:15;;;;;;;41.20;21.05;;;;;;;;;;6180381;28;20634;-58
2023/01/16 02:40:45;;;;;;;43.28;20.05;;;;;;;;;;6180518;28;20043;-58
2023/01/16 02:43:59;;;;;;;44.60;19.60;;;;;;;;;;6180371;28;20140;-58
2023/01/16 02:47:12;;;;;;;24.55;11.07;;;;;;;;;;6180004;28;20050;-60
2023/01/16 02:50:24;;;;;;;27.52;11.70;;;;;;;;;;6180310;28;20061;-58
2023/01/16 02:53:39;;;;;;;23.65;11.40;;;;;;;;;;6178947;28;20507;-60
2023/01/16 02:56:45;;;;;;;21.42;9.23;;;;;;;;;;6182238;28;20058;-61
2023/01/16 02:59:48;;;;;;;18.35;9.65;;;;;;;;;;6178640;28;20061;-58
2023/01/16 03:02:49;;;;;;;20.85;9.82;;;;;;;;;;6180889;28;20039;-61
2023/01/16 03:05:54;;;;;;;22.20;9.68;;;;;;;;;;6181500;28;20484;-60
2023/01/16 03:09:07;;;;;;;21.88;9.77;;;;;;;;;;6181702;28;20145;-59
2023/01/16 03:12:20;;;;;;;22.35;9.63;;;;;;;;;;6179988;28;20050;-60
2023/01/16 03:15:44;;;;;;;28.90;16.35;;;;;;;;;;6180257;28;20051;-57
2023/01/16 03:19:07;;;;;;;23.67;10.60;;;;;;;;;;6179375;28;20762;-60
2023/01/16 03:22:17;;;;;;;25.45;11.40;;;;;;;;;;6180942;28;20054;-60
2023/01/16 03:25:35;;;;;;;18.08;9.32;;;;;;;;;;6179496;28;20729;-58
2023/01/16 03:28:36;;;;;;;21.63;9.95;;;;;;;;;;6179915;28;20046;-61
2023/01/16 03:31:51;;;;;;;20.05;8.02;;;;;;;;;;6178907;28;20061;-60
2023/01/16 03:35:01;;;;;;;16.35;7.45;;;;;;;;;;6181579;28;20046;-61
2023/01/16 03:38:06;;;;;;;14.27;7.07;;;;;;;;;;6179975;28;20141;-58
2023/01/16 03:41:10;;;;;;;31.40;17.80;;;;;;;;;;6178948;28;20047;-60
2023/01/16 03:44:25;;;;;;;20.10;9.93;;;;;;;;;;6178888;28;20050;-59
2023/01/16 03:47:38;;;;;;;16.98;8.40;;;;;;;;;;6189253;28;20073;-60
2023/01/16 03:50:45;;;;;;;19.92;9.70;;;;;;;;;;6186208;28;20050;-60
2023/01/16 03:54:04;;;;;;;18.20;8.80;;;;;;;;;;6190101;28;20529;-60
2023/01/16 03:57:37;;;;;;;15.80;7.53;;;;;;;;;;6182075;28;20448;-62
2023/01/16 04:01:08;;;;;;;20.77;9.27;;;;;;;;;;6183311;28;20050;-60
2023/01/16 04:04:23;;;;;;;20.25;9.20;;;;;;;;;;6184742;28;21742;-63
2023/01/16 04:07:37;;;;;;;22.73;11.13;;;;;;;;;;6183004;28;20051;-60
2023/01/16 04:10:41;;;;;;;19.40;8.63;;;;;;;;;;6187160;28;20054;-59
2023/01/16 04:13:45;;;;;;;18.45;9.43;;;;;;;;;;6186245;28;20456;-60
2023/01/16 04:16:47;;;;;;;20.42;9.85;;;;;;;;;;6184823;28;20513;-61
2023/01/16 04:19:47;;;;;;;25.52;13.93;;;;;;;;;;6186484;28;20050;-60
2023/01/16 04:22:49;;;;;;;25.77;12.57;;;;;;;;;;6188627;28;20047;-61
2023/01/16 04:25:50;;;;;;;21.45;10.00;;;;;;;;;;6185681;28;20046;-64
2023/01/16 04:28:54;;;;;;;19.75;9.23;;;;;;;;;;6187083;28;20054;-60
2023/01/16 04:31:55;;;;;;;18.02;9.57;;;;;;;;;;6183987;28;20436;-60
2023/01/16 04:34:56;;;;;;;21.52;10.40;;;;;;;;;;6186569;28;20042;-61
2023/01/16 04:37:56;;;;;;;23.88;13.98;;;;;;;;;;6189290;28;20050;-59
2023/01/16 04:40:57;;;;;;;27.60;14.50;;;;;;;;;;6190925;28;20477;-61
2023/01/16 04:43:57;;;;;;;26.08;13.52;;;;;;;;;;6189008;28;20053;-60
2023/01/16 04:46:58;;;;;;;21.20;10.25;;;;;;;;;;6190439;28;20046;-60
2023/01/16 04:49:59;;;;;;;27.65;13.95;;;;;;;;;;6190800;28;20100;-59
2023/01/16 04:52:59;;;;;;;22.83;11.50;;;;;;;;;;6189278;28;20047;-60
2023/01/16 04:56:01;;;;;;;22.90;11.60;;;;;;;;;;6187268;28;20085;-61
2023/01/16 04:59:01;;;;;;;28.55;14.57;;;;;;;;;;6187338;28;20885;-60
2023/01/16 05:02:02;;;;;;;35.92;15.32;;;;;;;;;;6190363;28;20046;-60
2023/01/16 05:05:03;;;;;;;80.10;26.67;;;;;;;;;;6183729;28;20042;-61
2023/01/16 05:08:16;;;;;;;97.72;34.35;;;;;;;;;;6187007;28;20050;-60
2023/01/16 05:11:16;;;;;;;81.93;29.35;;;;;;;;;;6190464;28;20046;-63
2023/01/16 05:14:17;;;;;;;62.22;24.65;;;;;;;;;;6191471;28;20043;-61
2023/01/16 05:17:22;;;;;;;36.30;17.65;;;;;;;;;;6187564;28;20050;-60
2023/01/16 05:20:23;;;;;;;29.15;15.25;;;;;;;;;;6192377;28;20452;-61
2023/01/16 05:23:23;;;;;;;34.05;17.10;;;;;;;;;;6192348;28;20047;-61
2023/01/16 05:26:24;;;;;;;35.72;17.63;;;;;;;;;;6191112;28;20049;-60
2023/01/16 05:29:25;;;;;;;33.08;17.02;;;;;;;;;;6189317;28;20149;-61
2023/01/16 05:32:25;;;;;;;34.72;15.13;;;;;;;;;;6188981;28;20046;-59
2023/01/16 05:35:26;;;;;;;43.60;19.00;;;;;;;;;;6193171;28;20058;-61
2023/01/16 05:38:26;;;;;;;35.83;16.60;;;;;;;;;;6193835;28;20072;-60
2023/01/16 05:41:27;;;;;;;50.13;20.05;;;;;;;;;;6189612;28;20080;-60
2023/01/16 05:44:28;;;;;;;47.85;19.80;;;;;;;;;;6188727;28;20046;-60
2023/01/16 05:47:28;;;;;;;47.85;18.52;;;;;;;;;;6190594;28;20493;-60
2023/01/16 05:50:29;;;;;;;50.17;20.27;;;;;;;;;;6195081;28;20494;-61
2023/01/16 05:53:30;;;;;;;57.88;23.05;;;;;;;;;;6189997;28;20136;-63
2023/01/16 05:56:31;;;;;;;51.67;21.00;;;;;;;;;;6196890;28;20046;-61
2023/01/16 05:59:31;;;;;;;65.47;25.27;;;;;;;;;;6188662;28;20050;-60
2023/01/16 06:02:32;;;;;;;79.05;28.70;;;;;;;;;;6194427;28;20124;-62
2023/01/16 06:05:33;;;;;;;84.53;28.17;;;;;;;;;;6192428;28;20061;-62
2023/01/16 06:08:33;;;;;;;79.03;28.80;;;;;;;;;;6190231;28;20109;-62
2023/01/16 06:11:34;;;;;;;78.75;29.27;;;;;;;;;;6195832;28;20136;-57
2023/01/16 06:14:34;;;;;;;72.65;26.88;;;;;;;;;;6192537;28;20050;-60
2023/01/16 06:17:35;;;;;;;80.15;27.23;;;;;;;;;;6187319;28;20404;-60
2023/01/16 06:20:36;;;;;;;63.83;26.60;;;;;;;;;;6186558;28;20058;-63
2023/01/16 06:23:36;;;;;;;72.45;26.63;;;;;;;;;;6185893;28;20109;-58
2023/01/16 06:26:37;;;;;;;68.20;27.83;;;;;;;;;;6187114;28;20070;-62
2023/01/16 06:29:38;;;;;;;63.13;27.55;;;;;;;;;;6187027;28;20058;-58
2023/01/16 06:32:39;;;;;;;58.90;28.30;;;;;;;;;;6187759;28;20065;-60
2023/01/16 06:35:39;;;;;;;59.45;28.25;;;;;;;;;;6186813;28;20050;-61
2023/01/16 06:38:40;;;;;;;82.05;32.60;;;;;;;;;;6188301;28;20057;-57
2023/01/16 06:41:41;;;;;;;69.18;25.80;;;;;;;;;;6187288;28;20078;-60
2023/01/16 06:44:42;;;;;;;74.43;27.88;;;;;;;;;;6186558;28;20421;-61
2023/01/16 06:47:42;;;;;;;68.93;28.30;;;;;;;;;;6189698;28;20551;-62
2023/01/16 06:50:43;;;;;;;82.75;30.80;;;;;;;;;;6189294;28;20050;-59
2023/01/16 06:53:44;;;;;;;77.20;34.50;;;;;;;;;;6190507;28;20065;-60
2023/01/16 06:56:44;;;;;;;83.25;36.33;;;;;;;;;;6188758;28;20053;-59
2023/01/16 06:59:45;;;;;;;75.85;30.85;;;;;;;;;;6191307;28;20511;-60
2023/01/16 07:02:54;;;;;;;80.28;34.95;;;;;;;;;;6190283;28;20057;-63
2023/01/16 07:05:55;;;;;;;66.28;28.83;;;;;;;;;;6187468;28;20042;-60
2023/01/16 07:08:55;;;;;;;80.15;33.97;;;;;;;;;;6187481;28;20124;-60
2023/01/16 07:11:56;;;;;;;80.75;35.67;;;;;;;;;;6185731;28;20066;-61
2023/01/16 07:24:57;;;;;;;101.50;44.88;;;;;;;;;;6186859;28;20038;-59
2023/01/16 07:27:57;;;;;;;98.93;44.47;;;;;;;;;;6186758;28;20042;-61
2023/01/16 07:30:58;;;;;;;100.45;45.78;;;;;;;;;;6186236;28;20946;-60
2023/01/16 07:33:59;;;;;;;109.35;46.08;;;;;;;;;;6184481;28;20453;-60
